createdAt,value
2023-05-24T00:00:43.314Z,16.35
2023-05-24T00:03:10.652Z,16.31
2023-05-24T00:05:40.654Z,16.29
2023-05-24T00:08:08.102Z,16.27
2023-05-24T00:10:35.567Z,16.23
2023-05-24T00:13:02.707Z,16.10
2023-05-24T00:15:29.757Z,15.94
2023-05-24T00:17:56.824Z,15.71
2023-05-24T00:20:23.864Z,15.58
2023-05-24T00:22:51.415Z,15.53
2023-05-24T00:25:18.665Z,15.52
2023-05-24T00:27:46.230Z,15.50
2023-05-24T00:30:13.208Z,15.46
2023-05-24T00:32:42.316Z,15.40
2023-05-24T00:35:09.425Z,15.40
2023-05-24T00:37:37.200Z,15.41
2023-05-24T00:40:04.788Z,15.38
2023-05-24T00:42:32.108Z,15.33
2023-05-24T00:44:58.954Z,15.23
2023-05-24T00:47:26.110Z,15.08
2023-05-24T00:49:53.157Z,14.91
2023-05-24T00:52:20.096Z,14.77
2023-05-24T00:54:47.056Z,14.67
2023-05-24T00:57:14.120Z,14.65
2023-05-24T00:59:41.168Z,14.66
2023-05-24T01:02:08.954Z,14.66
2023-05-24T01:04:37.805Z,14.65
2023-05-24T01:07:37.546Z,14.65
2023-05-24T01:10:08.160Z,14.66
2023-05-24T01:12:46.896Z,14.71
2023-05-24T01:15:22.429Z,14.77
2023-05-24T01:18:01.230Z,14.79
2023-05-24T01:20:33.082Z,14.80
2023-05-24T01:23:16.136Z,14.81
2023-05-24T01:26:03.480Z,14.83
2023-05-24T01:28:31.533Z,14.82
2023-05-24T01:30:58.589Z,14.83
2023-05-24T01:33:25.635Z,14.89
2023-05-24T01:35:52.596Z,14.90
2023-05-24T01:38:19.530Z,14.90
2023-05-24T01:40:47.087Z,14.93
2023-05-24T01:43:17.972Z,14.95
2023-05-24T01:46:00.434Z,14.94
2023-05-24T01:48:27.376Z,14.93
2023-05-24T01:50:58.411Z,14.88
2023-05-24T01:53:26.667Z,14.90
2023-05-24T01:55:56.527Z,14.94
2023-05-24T01:58:23.564Z,14.93
2023-05-24T02:00:50.868Z,14.91
2023-05-24T02:03:17.956Z,14.86
2023-05-24T02:05:45.939Z,14.72
2023-05-24T02:08:12.992Z,14.60
2023-05-24T02:10:40.640Z,14.63
2023-05-24T02:13:07.915Z,14.65
2023-05-24T02:15:35.289Z,14.59
2023-05-24T02:18:02.419Z,14.55
2023-05-24T02:20:36.554Z,14.56
2023-05-24T02:23:04.091Z,14.58
2023-05-24T02:25:31.652Z,14.59
2023-05-24T02:27:59.298Z,14.60
2023-05-24T02:30:26.881Z,14.63
2023-05-24T02:32:53.954Z,14.69
2023-05-24T02:35:20.882Z,14.71
2023-05-24T02:37:47.822Z,14.70
2023-05-24T02:40:15.287Z,14.66
2023-05-24T02:42:42.538Z,14.65
2023-05-24T02:45:10.269Z,14.66
2023-05-24T02:47:37.517Z,14.68
2023-05-24T02:50:05.729Z,14.72
2023-05-24T02:52:32.993Z,14.78
2023-05-24T02:54:59.941Z,14.84
2023-05-24T02:57:28.411Z,14.88
2023-05-24T02:59:55.772Z,14.93
2023-05-24T03:02:22.819Z,14.97
2023-05-24T03:04:49.983Z,14.99
2023-05-24T03:07:17.122Z,15.01
2023-05-24T03:09:44.072Z,15.05
2023-05-24T03:12:12.453Z,15.05
2023-05-24T03:14:39.394Z,15.03
2023-05-24T03:17:06.346Z,15.06
2023-05-24T03:19:33.947Z,15.12
2023-05-24T03:22:01.176Z,15.17
2023-05-24T03:24:28.110Z,15.21
2023-05-24T03:26:55.060Z,15.25
2023-05-24T03:29:22.206Z,15.34
2023-05-24T03:31:50.918Z,15.45
2023-05-24T03:34:17.946Z,15.55
2023-05-24T03:36:45.003Z,15.63
2023-05-24T03:39:12.150Z,15.70
2023-05-24T03:41:53.940Z,15.80
2023-05-24T03:44:20.988Z,15.86
2023-05-24T03:46:47.948Z,16.00
2023-05-24T03:49:15.099Z,16.18
2023-05-24T03:51:42.542Z,16.30
2023-05-24T03:54:09.695Z,16.40
2023-05-24T03:56:36.951Z,16.48
2023-05-24T03:59:04.091Z,16.57
2023-05-24T04:01:34.430Z,16.65
2023-05-24T04:04:03.255Z,16.77
2023-05-24T04:06:30.465Z,16.94
2023-05-24T04:08:58.938Z,17.06
2023-05-24T04:11:28.798Z,17.14
2023-05-24T04:13:56.959Z,17.21
2023-05-24T04:16:24.425Z,17.30
2023-05-24T04:18:51.962Z,17.39
2023-05-24T04:21:19.164Z,17.46
2023-05-24T04:23:46.253Z,17.56
2023-05-24T04:26:13.815Z,17.68
2023-05-24T04:28:41.075Z,17.79
2023-05-24T04:31:09.513Z,17.90
2023-05-24T04:33:38.855Z,18.00
2023-05-24T04:36:07.952Z,18.10
2023-05-24T04:38:35.933Z,18.19
2023-05-24T04:41:02.878Z,18.26
2023-05-24T04:43:30.232Z,18.34
2023-05-24T04:45:57.475Z,18.41
2023-05-24T04:48:25.346Z,18.47
2023-05-24T04:50:53.551Z,18.58
2023-05-24T04:53:21.135Z,18.69
2023-05-24T04:55:48.335Z,18.80
2023-05-24T04:58:15.894Z,18.91
2023-05-24T05:00:43.256Z,19.00
2023-05-24T05:03:10.664Z,19.12
2023-05-24T05:05:37.859Z,19.22
2023-05-24T05:08:04.906Z,19.30
2023-05-24T05:10:32.054Z,19.39
2023-05-24T05:12:59.106Z,19.48
2023-05-24T05:15:26.154Z,19.59
2023-05-24T05:17:53.658Z,19.67
2023-05-24T05:20:21.037Z,19.73
2023-05-24T05:22:48.571Z,19.78
2023-05-24T05:25:16.804Z,19.85
2023-05-24T05:27:45.081Z,19.92
2023-05-24T05:30:12.776Z,20.00
2023-05-24T05:32:39.898Z,20.09
2023-05-24T05:35:07.583Z,20.15
2023-05-24T05:37:35.134Z,20.21
2023-05-24T05:40:03.605Z,20.27
2023-05-24T05:42:30.760Z,20.36
2023-05-24T05:44:57.708Z,20.45
2023-05-24T05:47:24.693Z,20.53
2023-05-24T05:49:51.809Z,20.61
2023-05-24T05:52:18.758Z,20.72
2023-05-24T05:54:45.701Z,20.84
2023-05-24T05:57:12.855Z,20.94
2023-05-24T05:59:39.901Z,21.07
2023-05-24T06:02:07.235Z,21.18
2023-05-24T06:06:23.991Z,21.39
2023-05-24T06:08:51.753Z,21.48
2023-05-24T06:11:19.646Z,21.57
2023-05-24T06:13:47.398Z,21.65
2023-05-24T06:16:15.291Z,21.75
2023-05-24T06:18:50.211Z,21.83
2023-05-24T06:21:22.148Z,21.92
2023-05-24T06:23:50.020Z,22.01
2023-05-24T06:26:17.989Z,22.11
2023-05-24T06:28:45.758Z,22.17
2023-05-24T06:31:13.840Z,22.30
2023-05-24T06:33:44.669Z,22.39
2023-05-24T06:36:18.271Z,22.49
2023-05-24T06:38:46.034Z,22.57
2023-05-24T06:41:13.817Z,22.66
2023-05-24T06:43:41.606Z,22.69
2023-05-24T06:46:09.795Z,22.75
2023-05-24T06:48:37.751Z,22.82
2023-05-24T06:51:05.588Z,22.89
2023-05-24T06:53:33.359Z,22.98
2023-05-24T06:56:01.120Z,23.04
2023-05-24T06:58:28.892Z,23.12
2023-05-24T07:00:56.699Z,23.21
2023-05-24T07:03:25.453Z,23.31
2023-05-24T07:05:53.312Z,23.37
2023-05-24T07:08:21.093Z,23.40
2023-05-24T07:10:48.845Z,23.42
2023-05-24T07:13:17.252Z,23.46
2023-05-24T07:15:47.087Z,23.52
2023-05-24T07:18:14.809Z,23.61
2023-05-24T07:20:42.861Z,23.66
2023-05-24T07:23:10.958Z,23.74
2023-05-24T07:25:39.128Z,23.86
2023-05-24T07:28:07.409Z,23.95
2023-05-24T07:30:35.832Z,24.03
2023-05-24T07:33:04.076Z,24.10
2023-05-24T07:35:33.277Z,24.16
2023-05-24T07:38:01.392Z,24.20
2023-05-24T07:40:29.107Z,24.26
2023-05-24T07:42:56.878Z,24.33
2023-05-24T07:45:24.747Z,24.45
2023-05-24T07:47:54.521Z,24.61
2023-05-24T07:50:24.384Z,24.76
2023-05-24T07:52:52.242Z,24.87
2023-05-24T07:55:20.215Z,24.97
2023-05-24T07:57:48.137Z,25.09
2023-05-24T08:00:16.863Z,25.21
2023-05-24T08:02:46.892Z,25.30
2023-05-24T08:05:15.392Z,25.33
2023-05-24T08:07:43.252Z,25.40
2023-05-24T08:10:13.979Z,25.52
2023-05-24T08:12:42.551Z,25.64
2023-05-24T08:15:11.046Z,25.69
2023-05-24T08:17:39.466Z,25.63
2023-05-24T08:20:10.201Z,25.48
2023-05-24T08:22:38.329Z,25.36
2023-05-24T08:25:07.006Z,25.30
2023-05-24T08:27:35.270Z,25.29
2023-05-24T08:30:04.504Z,25.36
2023-05-24T08:32:32.817Z,25.52
2023-05-24T08:35:14.893Z,25.69
2023-05-24T08:37:48.330Z,25.87
2023-05-24T08:40:16.562Z,26.06
2023-05-24T08:42:45.044Z,26.20
2023-05-24T08:45:13.741Z,26.29
2023-05-24T08:47:42.690Z,26.40
2023-05-24T08:50:10.905Z,26.54
2023-05-24T08:52:40.026Z,26.58
2023-05-24T08:55:08.839Z,26.58
2023-05-24T08:57:39.711Z,26.47
2023-05-24T09:00:14.509Z,26.32
2023-05-24T09:02:43.582Z,26.23
2023-05-24T09:05:12.624Z,26.17
2023-05-24T09:07:41.034Z,26.19
2023-05-24T09:10:09.685Z,26.28
2023-05-24T09:12:39.275Z,26.34
2023-05-24T09:15:08.632Z,26.43
2023-05-24T09:17:37.458Z,26.56
2023-05-24T09:20:11.497Z,26.61
2023-05-24T09:22:42.252Z,26.63
2023-05-24T09:25:11.588Z,26.67
2023-05-24T09:27:39.692Z,26.77
2023-05-24T09:30:11.311Z,26.87
2023-05-24T09:32:39.295Z,26.95
2023-05-24T09:35:10.979Z,27.05
2023-05-24T09:37:39.195Z,27.25
2023-05-24T09:40:09.146Z,27.44
2023-05-24T09:42:37.808Z,27.62
2023-05-24T09:45:09.535Z,27.74
2023-05-24T09:47:38.163Z,27.77
2023-05-24T09:50:07.643Z,27.69
2023-05-24T09:52:38.603Z,27.59
2023-05-24T09:55:13.627Z,27.44
2023-05-24T09:57:41.502Z,27.27
2023-05-24T10:00:17.880Z,27.13
2023-05-24T10:02:53.470Z,26.97
2023-05-24T10:05:22.007Z,26.77
2023-05-24T10:07:49.862Z,26.64
2023-05-24T10:10:17.626Z,26.51
2023-05-24T10:12:47.121Z,26.37
2023-05-24T10:15:14.913Z,26.28
2023-05-24T10:17:42.704Z,26.16
2023-05-24T10:20:12.778Z,26.09
2023-05-24T10:22:47.717Z,26.05
2023-05-24T10:25:27.794Z,26.00
2023-05-24T10:28:01.170Z,25.94
2023-05-24T10:30:35.462Z,25.86
2023-05-24T10:33:05.304Z,25.82
2023-05-24T10:35:34.206Z,25.96
2023-05-24T10:38:06.662Z,26.20
2023-05-24T10:40:34.429Z,26.61
2023-05-24T10:43:07.007Z,27.04
2023-05-24T10:45:40.417Z,27.47
2023-05-24T10:48:14.575Z,27.79
2023-05-24T10:50:43.067Z,28.23
2023-05-24T10:53:15.284Z,28.68
2023-05-24T10:55:55.947Z,29.09
2023-05-24T10:58:30.780Z,29.50
2023-05-24T11:00:58.551Z,29.89
2023-05-24T11:03:26.319Z,30.22
2023-05-24T11:05:55.065Z,30.30
2023-05-24T11:08:44.200Z,30.22
2023-05-24T11:13:44.408Z,30.00
2023-05-24T11:16:34.305Z,29.89
2023-05-24T11:19:16.186Z,29.87
2023-05-24T11:21:51.742Z,29.78
2023-05-24T11:24:20.311Z,29.67
2023-05-24T11:26:48.201Z,29.40
2023-05-24T11:29:22.918Z,29.04
2023-05-24T11:31:55.616Z,28.68
2023-05-24T11:34:24.423Z,28.45
2023-05-24T11:36:55.748Z,28.43
2023-05-24T11:43:17.472Z,28.86
2023-05-24T11:45:52.073Z,29.31
2023-05-24T11:48:20.130Z,29.51
2023-05-24T11:50:51.276Z,29.74
2023-05-24T11:53:20.213Z,30.04
2023-05-24T11:55:49.103Z,30.40
2023-05-24T11:58:16.979Z,30.82
2023-05-24T12:00:44.945Z,31.24
2023-05-24T12:03:12.877Z,31.45
2023-05-24T12:05:40.785Z,31.66
2023-05-24T12:08:12.425Z,31.66
2023-05-24T12:10:41.985Z,31.52
2023-05-24T12:13:23.623Z,31.45
2023-05-24T12:15:56.524Z,31.22
2023-05-24T12:18:26.426Z,31.11
2023-05-24T12:20:54.532Z,30.95
2023-05-24T12:23:28.037Z,30.59
2023-05-24T12:26:00.256Z,30.15
2023-05-24T12:28:28.834Z,29.85
2023-05-24T12:30:56.626Z,29.72
2023-05-24T12:33:24.616Z,29.75
2023-05-24T12:35:53.708Z,29.89
2023-05-24T12:38:25.884Z,30.14
2023-05-24T12:41:10.831Z,30.39
2023-05-24T12:43:40.930Z,30.60
2023-05-24T12:46:08.858Z,30.65
2023-05-24T12:48:36.607Z,30.62
2023-05-24T12:51:04.673Z,30.64
2023-05-24T12:53:32.659Z,30.83
2023-05-24T12:56:01.034Z,30.95
2023-05-24T12:58:29.303Z,30.93
2023-05-24T13:00:57.314Z,30.82
2023-05-24T13:03:25.254Z,30.86
2023-05-24T13:05:53.135Z,31.03
2023-05-24T13:08:21.084Z,31.20
2023-05-24T13:10:51.149Z,31.22
2023-05-24T13:13:18.973Z,31.12
2023-05-24T13:15:47.762Z,31.04
2023-05-24T13:18:15.637Z,31.04
2023-05-24T13:20:43.603Z,30.96
2023-05-24T13:23:11.779Z,30.83
2023-05-24T13:25:39.542Z,30.74
2023-05-24T13:28:07.466Z,30.50
2023-05-24T13:30:35.388Z,30.12
2023-05-24T13:33:03.307Z,29.68
2023-05-24T13:35:31.631Z,29.26
2023-05-24T13:37:59.504Z,28.92
2023-05-24T13:40:27.415Z,28.72
2023-05-24T13:42:57.131Z,28.67
2023-05-24T13:45:25.470Z,28.66
2023-05-24T13:47:54.195Z,28.65
2023-05-24T13:50:24.122Z,28.73
2023-05-24T13:52:52.029Z,28.87
2023-05-24T13:55:19.793Z,28.95
2023-05-24T13:57:51.695Z,29.00
2023-05-24T14:00:20.358Z,29.04
2023-05-24T14:02:48.787Z,29.10
2023-05-24T14:05:27.514Z,29.17
2023-05-24T14:07:57.864Z,29.23
2023-05-24T14:10:26.285Z,29.26
2023-05-24T14:13:11.232Z,29.29
2023-05-24T14:15:42.706Z,29.33
2023-05-24T14:18:11.027Z,29.36
2023-05-24T14:20:40.375Z,29.39
2023-05-24T14:23:08.647Z,29.34
2023-05-24T14:25:36.508Z,29.24
2023-05-24T14:28:04.289Z,29.24
2023-05-24T14:30:32.557Z,29.29
2023-05-24T14:33:01.436Z,29.32
2023-05-24T14:35:29.316Z,29.31
2023-05-24T14:37:57.084Z,29.35
2023-05-24T14:40:24.878Z,29.36
2023-05-24T14:42:52.620Z,29.31
2023-05-24T14:45:20.383Z,29.10
2023-05-24T14:47:48.198Z,28.89
2023-05-24T14:50:16.325Z,28.76
2023-05-24T14:52:44.088Z,28.67
2023-05-24T14:55:11.908Z,28.57
2023-05-24T14:57:39.728Z,28.50
2023-05-24T15:00:08.803Z,28.44
2023-05-24T15:02:37.559Z,28.38
2023-05-24T15:05:06.298Z,28.33
2023-05-24T15:07:34.071Z,28.31
2023-05-24T15:10:01.977Z,28.26
2023-05-24T15:12:29.920Z,28.13
2023-05-24T15:14:57.881Z,28.00
2023-05-24T15:17:26.674Z,27.94
2023-05-24T15:19:54.562Z,27.89
2023-05-24T15:22:22.868Z,27.78
2023-05-24T15:24:50.686Z,27.64
2023-05-24T15:27:18.484Z,27.47
2023-05-24T15:29:46.323Z,27.29
2023-05-24T15:32:14.103Z,27.14
2023-05-24T15:34:41.965Z,27.00
2023-05-24T15:37:09.832Z,26.84
2023-05-24T15:39:37.910Z,26.70
2023-05-24T15:42:06.160Z,26.59
2023-05-24T15:44:33.947Z,26.48
2023-05-24T15:47:01.823Z,26.38
2023-05-24T15:49:29.786Z,26.32
2023-05-24T15:52:04.202Z,26.28
2023-05-24T15:54:33.121Z,26.22
2023-05-24T15:57:02.195Z,26.17
2023-05-24T15:59:30.003Z,26.15
2023-05-24T16:01:57.882Z,26.17
2023-05-24T16:04:25.704Z,26.20
2023-05-24T16:06:53.490Z,26.23
2023-05-24T16:09:21.540Z,26.23
2023-05-24T16:11:49.410Z,26.22
2023-05-24T16:14:17.176Z,26.21
2023-05-24T16:16:45.036Z,26.21
2023-05-24T16:19:12.924Z,26.20
2023-05-24T16:21:40.892Z,26.15
2023-05-24T16:24:09.467Z,26.09
2023-05-24T16:26:37.443Z,26.01
2023-05-24T16:29:07.363Z,25.92
2023-05-24T16:31:35.167Z,25.83
2023-05-24T16:34:03.303Z,25.72
2023-05-24T16:36:32.090Z,25.61
2023-05-24T16:38:59.949Z,25.50
2023-05-24T16:41:34.899Z,25.40
2023-05-24T16:44:02.667Z,25.34
2023-05-24T16:46:30.921Z,25.29
2023-05-24T16:48:59.531Z,25.22
2023-05-24T16:51:27.299Z,25.15
2023-05-24T16:53:55.060Z,25.06
2023-05-24T16:56:23.654Z,24.95
2023-05-24T16:58:51.629Z,24.84
2023-05-24T17:01:19.506Z,24.72
2023-05-24T17:03:48.108Z,24.58
2023-05-24T17:06:15.995Z,24.46
2023-05-24T17:08:43.821Z,24.34
2023-05-24T17:11:12.207Z,24.21
2023-05-24T17:13:40.376Z,24.09
2023-05-24T17:16:08.472Z,24.00
2023-05-24T17:18:36.218Z,23.89
2023-05-24T17:21:04.652Z,23.78
2023-05-24T17:23:33.601Z,23.67
2023-05-24T17:26:02.875Z,23.55
2023-05-24T17:28:30.810Z,23.45
2023-05-24T17:30:59.636Z,23.36
2023-05-24T17:33:28.371Z,23.31
2023-05-24T17:36:02.820Z,23.28
2023-05-24T17:38:33.357Z,23.22
2023-05-24T17:41:00.993Z,23.13
2023-05-24T17:43:34.580Z,23.05
2023-05-24T17:46:09.668Z,22.98
2023-05-24T17:48:38.236Z,22.91
2023-05-24T17:51:07.397Z,22.86
2023-05-24T17:53:35.730Z,22.81
2023-05-24T17:56:03.731Z,22.72
2023-05-24T17:58:33.006Z,22.61
2023-05-24T18:01:00.772Z,22.50
2023-05-24T18:03:28.453Z,22.40
2023-05-24T18:05:56.335Z,22.34
2023-05-24T18:08:25.504Z,22.28
2023-05-24T18:10:53.080Z,22.23
2023-05-24T18:13:20.688Z,22.19
2023-05-24T18:15:51.822Z,22.14
2023-05-24T18:18:19.416Z,22.07
2023-05-24T18:20:47.087Z,22.01
2023-05-24T18:23:59.766Z,21.94
2023-05-24T18:26:27.426Z,21.86
2023-05-24T18:28:55.185Z,21.79
2023-05-24T18:31:22.723Z,21.71
2023-05-24T18:33:50.614Z,21.62
2023-05-24T18:36:18.447Z,21.47
2023-05-24T18:38:47.525Z,21.30
2023-05-24T18:41:16.692Z,21.16
2023-05-24T18:43:44.317Z,21.05
2023-05-24T18:46:15.238Z,20.93
2023-05-24T18:48:43.027Z,20.78
2023-05-24T18:51:10.695Z,20.67
2023-05-24T18:53:38.253Z,20.58
2023-05-24T18:56:06.474Z,20.50
2023-05-24T18:58:34.035Z,20.43
2023-05-24T19:01:01.746Z,20.38
2023-05-24T19:03:29.583Z,20.31
2023-05-24T19:05:57.375Z,20.27
2023-05-24T19:08:24.975Z,20.18
2023-05-24T19:10:52.671Z,20.11
2023-05-24T19:13:20.446Z,20.09
2023-05-24T19:15:47.999Z,20.06
2023-05-24T19:18:16.197Z,20.02
2023-05-24T19:20:43.834Z,19.94
2023-05-24T19:23:11.717Z,19.88
2023-05-24T19:25:42.303Z,19.84
2023-05-24T19:28:10.952Z,19.77
2023-05-24T19:30:38.645Z,19.69
2023-05-24T19:33:07.397Z,19.63
2023-05-24T19:35:35.252Z,19.58
2023-05-24T19:38:02.903Z,19.51
2023-05-24T19:40:30.581Z,19.45
2023-05-24T19:42:58.212Z,19.36
2023-05-24T19:45:25.984Z,19.29
2023-05-24T19:47:53.568Z,19.26
2023-05-24T19:50:21.336Z,19.24
2023-05-24T19:52:48.853Z,19.24
2023-05-24T19:55:16.496Z,19.24
2023-05-24T19:57:44.108Z,19.23
2023-05-24T20:00:13.951Z,19.23
2023-05-24T20:02:41.656Z,19.22
2023-05-24T20:05:09.553Z,19.20
2023-05-24T20:07:38.255Z,19.19
2023-05-24T20:10:06.837Z,19.18
2023-05-24T20:12:34.813Z,19.16
2023-05-24T20:15:02.806Z,19.12
2023-05-24T20:17:30.743Z,19.09
2023-05-24T20:19:58.456Z,19.05
2023-05-24T20:22:26.164Z,18.99
2023-05-24T20:24:53.692Z,18.97
2023-05-24T20:27:21.606Z,18.92
2023-05-24T20:29:49.164Z,18.83
2023-05-24T20:32:17.217Z,18.74
2023-05-24T20:34:44.877Z,18.65
2023-05-24T20:37:12.482Z,18.56
2023-05-24T20:39:40.041Z,18.52
2023-05-24T20:42:08.572Z,18.49
2023-05-24T20:44:36.236Z,18.47
2023-05-24T20:47:03.912Z,18.47
2023-05-24T20:49:31.589Z,18.46
2023-05-24T20:51:59.279Z,18.46
2023-05-24T20:54:26.833Z,18.51
2023-05-24T20:56:54.378Z,18.59
2023-05-24T20:59:21.938Z,18.62
2023-05-24T21:01:49.581Z,18.63
2023-05-24T21:04:17.436Z,18.65
2023-05-24T21:06:45.463Z,18.67
2023-05-24T21:09:13.079Z,18.69
2023-05-24T21:11:40.834Z,18.70
2023-05-24T21:14:08.744Z,18.66
2023-05-24T21:16:36.736Z,18.62
2023-05-24T21:19:04.440Z,18.56
2023-05-24T21:21:32.307Z,18.51
2023-05-24T21:23:59.964Z,18.48
2023-05-24T21:26:27.597Z,18.45
2023-05-24T21:28:55.398Z,18.40
2023-05-24T21:31:23.250Z,18.36
2023-05-24T21:33:51.087Z,18.37
2023-05-24T21:36:18.650Z,18.40
2023-05-24T21:38:47.071Z,18.39
2023-05-24T21:41:14.886Z,18.37
2023-05-24T21:43:43.016Z,18.34
2023-05-24T21:46:10.548Z,18.33
2023-05-24T21:48:38.138Z,18.31
2023-05-24T21:51:06.080Z,18.28
2023-05-24T21:53:35.294Z,18.22
2023-05-24T21:56:06.754Z,18.17
2023-05-24T21:58:34.849Z,18.12
2023-05-24T22:01:02.485Z,18.06
2023-05-24T22:03:30.111Z,18.00
2023-05-24T22:05:57.817Z,17.93
2023-05-24T22:08:25.590Z,17.89
2023-05-24T22:10:53.158Z,17.83
2023-05-24T22:13:20.673Z,17.78
2023-05-24T22:15:48.204Z,17.78
2023-05-24T22:18:18.847Z,17.78
2023-05-24T22:20:46.416Z,17.77
2023-05-24T22:23:14.523Z,17.75
2023-05-24T22:25:42.857Z,17.70
2023-05-24T22:28:10.694Z,17.62
2023-05-24T22:30:38.264Z,17.56
2023-05-24T22:33:05.816Z,17.50
2023-05-24T22:35:33.437Z,17.44
2023-05-24T22:38:01.696Z,17.38
2023-05-24T22:40:29.397Z,17.34
2023-05-24T22:42:57.067Z,17.32
2023-05-24T22:45:24.619Z,17.33
2023-05-24T22:47:54.310Z,17.33
2023-05-24T22:50:22.142Z,17.32
2023-05-24T22:52:49.757Z,17.31
2023-05-24T22:55:17.661Z,17.31
2023-05-24T22:57:45.207Z,17.29
2023-05-24T23:00:13.512Z,17.28
2023-05-24T23:02:41.258Z,17.25
2023-05-24T23:05:09.728Z,17.22
2023-05-24T23:07:38.219Z,17.19
2023-05-24T23:10:08.059Z,17.16
2023-05-24T23:12:36.106Z,17.19
2023-05-24T23:15:04.820Z,17.24
2023-05-24T23:17:32.563Z,17.28
2023-05-24T23:20:00.389Z,17.28
2023-05-24T23:22:28.167Z,17.28
2023-05-24T23:24:56.140Z,17.27
2023-05-24T23:27:23.959Z,17.23
2023-05-24T23:29:51.546Z,17.05
2023-05-24T23:32:19.309Z,16.86
2023-05-24T23:34:47.134Z,16.74
2023-05-24T23:37:14.969Z,16.68
2023-05-24T23:39:42.627Z,16.68
2023-05-24T23:42:10.145Z,16.70
2023-05-24T23:44:37.756Z,16.72
2023-05-24T23:47:05.520Z,16.73
2023-05-24T23:49:33.555Z,16.74
2023-05-24T23:52:01.357Z,16.78
2023-05-24T23:54:28.900Z,16.84
2023-05-24T23:56:56.733Z,16.87
2023-05-24T23:59:24.554Z,16.89
